Time;durP1;ratioP1;P1;durP2;ratioP2;P2;SDS_P1;SDS_P2;PMS_P1;PMS_P2;Temp;Humidity;BMP_temperature;BMP_pressure;BME280_temperature;BME280_humidity;BME280_pressure;Samples;Min_cycle;Max_cycle;Signal;HPM_P1;HPM_P2
2022/02/09 07:23:57;;;;;;;;;46.00;39.25;;;;;;;;5358998;22;45537;-91
2022/02/09 07:26:41;;;;;;;;;54.25;39.75;;;;;;;;4958017;28;45628;-88
2022/02/09 07:29:06;;;;;;;;;44.50;38.75;;;;;;;;4953442;28;45466;-88
2022/02/09 07:31:32;;;;;;;;;52.25;39.75;;;;;;;;4955120;28;47009;-87
2022/02/09 07:33:59;;;;;;;;;50.25;42.00;;;;;;;;4974048;28;45410;-87
2022/02/09 07:36:25;;;;;;;;;55.75;44.00;;;;;;;;4971335;28;45576;-87
2022/02/09 07:38:50;;;;;;;;;57.50;45.00;;;;;;;;4953510;28;45313;-88
2022/02/09 07:41:15;;;;;;;;;56.75;43.00;;;;;;;;4952938;28;47929;-86
2022/02/09 07:43:49;;;;;;;;;46.25;38.25;;;;;;;;4954614;28;45667;-86
2022/02/09 07:46:40;;;;;;;;;49.75;41.25;;;;;;;;4954882;28;45358;-86
2022/02/09 07:49:24;;;;;;;;;50.25;40.75;;;;;;;;4957180;28;45406;-86
2022/02/09 07:54:18;;;;;;;;;44.25;37.00;;;;;;;;4969956;28;45730;-86
2022/02/09 07:56:44;;;;;;;;;38.75;36.25;;;;;;;;4972260;28;45402;-86
2022/02/09 07:59:10;;;;;;;;;34.25;31.75;;;;;;;;4965725;28;45469;-86
2022/02/09 08:01:36;;;;;;;;;28.75;26.25;;;;;;;;4969121;28;45573;-86
2022/02/09 08:04:01;;;;;;;;;39.75;36.75;;;;;;;;4976853;28;45347;-86
2022/02/09 08:06:27;;;;;;;;;42.50;37.50;;;;;;;;4970077;28;45718;-86
2022/02/09 08:08:54;;;;;;;;;43.25;35.00;;;;;;;;4972421;28;49825;-86
2022/02/09 08:26:05;;;;;;;;;39.50;35.25;;;;;;;;4969764;28;45362;-87
2022/02/09 08:30:21;;;;;;;;;44.25;37.00;;;;;;;;4969806;28;45397;-86
2022/02/09 08:33:05;;;;;;;;;50.25;40.50;;;;;;;;4970239;28;45472;-86
2022/02/09 08:35:30;;;;;;;;;48.25;37.00;;;;;;;;4969591;28;45599;-86
2022/02/09 08:37:59;;;;;;;;;40.75;36.25;;;;;;;;4969520;28;45473;-86
2022/02/09 08:40:25;;;;;;;;;46.50;38.50;;;;;;;;4972274;28;45482;-86
2022/02/09 08:42:51;;;;;;;;;49.00;39.25;;;;;;;;4970679;28;46010;-86
2022/02/09 08:45:16;;;;;;;;;47.75;40.25;;;;;;;;4972517;28;45840;-86
2022/02/09 08:47:42;;;;;;;;;45.50;36.75;;;;;;;;4955444;28;45351;-86
2022/02/09 08:50:07;;;;;;;;;50.75;39.25;;;;;;;;4968976;28;45532;-86
2022/02/09 08:52:32;;;;;;;;;44.25;37.25;;;;;;;;4969461;28;46158;-86
2022/02/09 08:54:58;;;;;;;;;58.00;41.25;;;;;;;;4971583;28;45940;-86
2022/02/09 08:57:24;;;;;;;;;54.75;43.25;;;;;;;;4954101;28;45467;-86
2022/02/09 08:59:51;;;;;;;;;57.00;45.25;;;;;;;;4950991;28;54825;-86
2022/02/09 09:02:19;;;;;;;;;49.75;42.75;;;;;;;;4953462;28;47611;-86
2022/02/09 09:04:52;;;;;;;;;54.00;44.75;;;;;;;;4952696;28;45585;-86
2022/02/09 09:07:24;;;;;;;;;51.25;41.50;;;;;;;;4969569;28;45637;-86
2022/02/09 09:09:59;;;;;;;;;55.00;41.75;;;;;;;;4972453;28;45482;-86
2022/02/09 09:14:58;;;;;;;;;54.50;43.50;;;;;;;;4950623;28;47076;-86
2022/02/09 10:03:56;;;;;;;;;28.50;26.25;;;;;;;;4968208;28;45584;-86
2022/02/09 10:31:31;;;;;;;;;38.00;31.00;;;;;;;;4972902;28;45819;-86
2022/02/09 10:34:02;;;;;;;;;30.75;28.00;;;;;;;;4971225;28;45378;-86
2022/02/09 10:36:27;;;;;;;;;33.25;27.00;;;;;;;;4972889;28;45451;-86
2022/02/09 10:39:11;;;;;;;;;34.25;30.25;;;;;;;;4955221;28;46167;-86
2022/02/09 10:41:48;;;;;;;;;30.50;29.00;;;;;;;;4972894;28;45331;-86
2022/02/09 10:44:20;;;;;;;;;35.25;31.25;;;;;;;;4954423;28;45511;-86
2022/02/09 10:46:46;;;;;;;;;30.00;28.00;;;;;;;;4972998;28;45521;-86
2022/02/09 10:49:12;;;;;;;;;34.50;28.50;;;;;;;;4974953;28;47523;-86
2022/02/09 10:54:23;;;;;;;;;36.25;30.75;;;;;;;;4972013;28;45477;-86
2022/02/09 10:56:54;;;;;;;;;35.00;32.00;;;;;;;;4971261;28;45499;-85
2022/02/09 10:59:20;;;;;;;;;38.00;31.50;;;;;;;;4972525;28;45426;-85
2022/02/09 11:01:45;;;;;;;;;34.50;31.75;;;;;;;;4952349;28;45672;-86
2022/02/09 11:04:11;;;;;;;;;37.00;28.50;;;;;;;;4956584;28;45438;-86
2022/02/09 11:06:38;;;;;;;;;28.50;24.50;;;;;;;;4987900;28;45748;-86
2022/02/09 11:09:04;;;;;;;;;37.25;31.75;;;;;;;;4970108;28;46152;-85
2022/02/09 11:11:30;;;;;;;;;37.50;34.50;;;;;;;;4954597;28;45407;-86
2022/02/09 11:13:55;;;;;;;;;26.00;25.75;;;;;;;;4970492;28;45787;-86
2022/02/09 11:16:22;;;;;;;;;36.50;31.75;;;;;;;;4972940;28;45753;-85
2022/02/09 11:18:48;;;;;;;;;33.25;31.75;;;;;;;;4972556;28;46105;-85
2022/02/09 11:21:14;;;;;;;;;32.75;27.75;;;;;;;;4952122;28;45662;-85
2022/02/09 11:23:41;;;;;;;;;35.00;31.00;;;;;;;;4971957;28;45499;-86
2022/02/09 11:26:25;;;;;;;;;35.75;31.75;;;;;;;;4972888;28;45607;-86
2022/02/09 11:29:16;;;;;;;;;34.50;30.50;;;;;;;;4970977;28;46222;-85
2022/02/09 11:32:00;;;;;;;;;31.25;26.50;;;;;;;;4968029;28;45431;-86
2022/02/09 11:34:25;;;;;;;;;30.25;27.50;;;;;;;;4973252;28;45499;-87
2022/02/09 11:36:59;;;;;;;;;32.75;27.25;;;;;;;;4954529;28;45402;-87
2022/02/09 11:39:47;;;;;;;;;39.00;33.00;;;;;;;;4970305;28;46171;-88
2022/02/09 11:42:39;;;;;;;;;36.75;33.00;;;;;;;;4952566;28;45796;-88
2022/02/09 12:10:03;;;;;;;;;31.75;29.25;;;;;;;;4969508;28;45569;-87
2022/02/09 12:12:14;;;;;;;;;32.50;27.50;;;;;;;;4953874;28;47246;-87
2022/02/09 12:14:48;;;;;;;;;29.25;28.25;;;;;;;;4951753;28;45380;-86
2022/02/09 12:17:28;;;;;;;;;35.75;33.25;;;;;;;;4952500;28;45821;-86
2022/02/09 12:20:04;;;;;;;;;33.50;28.50;;;;;;;;4952616;28;45569;-86
2022/02/09 12:22:41;;;;;;;;;27.50;27.50;;;;;;;;4969256;28;47976;-87
2022/02/09 12:25:06;;;;;;;;;41.50;32.25;;;;;;;;4988739;28;45474;-86
2022/02/09 12:27:32;;;;;;;;;31.25;26.75;;;;;;;;4951998;28;45503;-86
2022/02/09 12:29:59;;;;;;;;;29.75;26.25;;;;;;;;4956255;28;45764;-86
2022/02/09 12:32:27;;;;;;;;;27.25;25.00;;;;;;;;4949144;28;48358;-88
2022/02/09 12:34:53;;;;;;;;;31.25;26.00;;;;;;;;4952650;28;45725;-90
2022/02/09 12:37:18;;;;;;;;;23.67;21.00;;;;;;;;4971598;28;45464;-89
2022/02/09 12:39:46;;;;;;;;;33.00;25.75;;;;;;;;4956444;28;45463;-90
2022/02/09 12:42:13;;;;;;;;;29.75;29.25;;;;;;;;4954009;28;47727;-87
2022/02/09 12:44:38;;;;;;;;;33.25;30.25;;;;;;;;4982772;28;45509;-88
2022/02/09 12:47:05;;;;;;;;;31.00;29.00;;;;;;;;4951783;28;45798;-88
2022/02/09 12:49:30;;;;;;;;;29.00;26.50;;;;;;;;4970892;28;45515;-88
2022/02/09 12:51:56;;;;;;;;;32.25;25.50;;;;;;;;4952193;28;47864;-88
2022/02/09 12:54:22;;;;;;;;;34.50;30.25;;;;;;;;4952263;28;45703;-88
2022/02/09 12:56:48;;;;;;;;;29.50;26.75;;;;;;;;4953536;28;45444;-88
2022/02/09 12:59:14;;;;;;;;;29.00;23.75;;;;;;;;4953043;28;45767;-88
2022/02/09 13:01:48;;;;;;;;;32.25;27.75;;;;;;;;4966465;28;47449;-88
2022/02/09 13:04:26;;;;;;;;;32.00;26.75;;;;;;;;4951394;28;45842;-88
2022/02/09 13:06:51;;;;;;;;;31.50;29.00;;;;;;;;4949201;28;45447;-88
2022/02/09 13:09:17;;;;;;;;;27.50;24.00;;;;;;;;4953612;28;45434;-88
2022/02/09 13:11:42;;;;;;;;;28.67;21.67;;;;;;;;4950962;28;47223;-88
2022/02/09 13:14:12;;;;;;;;;28.33;24.33;;;;;;;;4950647;28;45399;-88
2022/02/09 13:19:41;;;;;;;;;28.67;25.00;;;;;;;;4968881;28;45478;-89
2022/02/09 13:22:40;;;;;;;;;24.50;23.50;;;;;;;;4972127;28;46340;-89
2022/02/09 13:26:27;;;;;;;;;21.33;21.33;;;;;;;;4954672;28;45420;-89
2022/02/09 14:13:14;;;;;;;;;31.00;24.67;;;;;;;;4913824;28;45373;-87
2022/02/09 14:15:34;;;;;;;;;29.33;24.00;;;;;;;;4911456;28;45497;-89
2022/02/09 14:18:29;;;;;;;;;27.00;24.00;;;;;;;;4894482;28;47245;-88
2022/02/09 14:58:13;;;;;;;;;25.00;21.67;;;;;;;;4873650;29;45753;-88
2022/02/09 15:00:56;;;;;;;;;24.00;21.33;;;;;;;;4857299;29;47445;-89
2022/02/09 15:08:43;;;;;;;;;19.00;17.33;;;;;;;;4962388;28;45314;-88
2022/02/09 15:11:15;;;;;;;;;23.00;18.67;;;;;;;;4953175;28;47092;-88
2022/02/09 15:16:19;;;;;;;;;24.00;20.00;;;;;;;;4975946;28;45342;-89
2022/02/09 15:19:08;;;;;;;;;14.00;12.33;;;;;;;;4972316;28;45489;-88
2022/02/09 15:24:19;;;;;;;;;21.67;19.00;;;;;;;;4971002;28;47640;-88
2022/02/09 15:26:47;;;;;;;;;22.67;17.00;;;;;;;;4954245;28;45506;-89
2022/02/09 15:29:15;;;;;;;;;20.00;17.33;;;;;;;;4969619;28;45853;-88
2022/02/09 15:31:48;;;;;;;;;21.33;20.33;;;;;;;;4951860;28;48390;-88
2022/02/09 15:34:18;;;;;;;;;22.67;21.33;;;;;;;;4970517;28;45728;-88
2022/02/09 15:36:53;;;;;;;;;17.00;15.33;;;;;;;;4956314;28;45508;-88
2022/02/09 15:39:20;;;;;;;;;19.00;17.33;;;;;;;;4956750;28;45818;-88
2022/02/09 15:42:04;;;;;;;;;23.67;22.67;;;;;;;;4955207;28;47011;-88
2022/02/09 16:06:32;;;;;;;;;24.67;23.33;;;;;;;;4971757;28;45335;-88
2022/02/09 16:09:22;;;;;;;;;28.33;25.67;;;;;;;;4964351;28;45448;-88
2022/02/09 16:22:40;;;;;;;;;19.00;18.00;;;;;;;;4970312;28;45409;-88
2022/02/09 16:33:28;;;;;;;;;21.00;16.00;;;;;;;;4969783;28;45486;-88
2022/02/09 16:44:19;;;;;;;;;20.67;18.33;;;;;;;;4956515;28;45660;-88
2022/02/09 16:46:51;;;;;;;;;18.67;16.33;;;;;;;;4954383;28;46608;-88
2022/02/09 16:49:28;;;;;;;;;17.33;17.00;;;;;;;;4971677;28;46188;-88
2022/02/09 16:52:06;;;;;;;;;18.67;18.00;;;;;;;;4971982;28;45602;-89
2022/02/09 17:19:02;;;;;;;;;13.33;11.33;;;;;;;;4911116;28;46194;-88
2022/02/09 17:21:28;;;;;;;;;18.33;15.67;;;;;;;;4910547;28;45466;-88
2022/02/09 17:23:54;;;;;;;;;14.33;14.33;;;;;;;;4910797;28;45451;-88
2022/02/09 17:26:20;;;;;;;;;18.67;15.33;;;;;;;;4910638;28;45543;-89
2022/02/09 17:28:46;;;;;;;;;16.00;16.00;;;;;;;;4910840;28;45931;-88
2022/02/09 17:31:26;;;;;;;;;11.67;11.67;;;;;;;;4896002;28;45399;-88
2022/02/09 17:57:40;;;;;;;;;10.67;10.00;;;;;;;;4946264;28;45466;-88
2022/02/09 18:00:14;;;;;;;;;15.00;12.00;;;;;;;;4930698;28;47351;-88
2022/02/09 18:02:40;;;;;;;;;15.67;12.33;;;;;;;;4941677;28;45838;-87
2022/02/09 18:05:12;;;;;;;;;15.00;13.33;;;;;;;;4948366;28;45505;-88
2022/02/09 18:07:39;;;;;;;;;16.33;11.67;;;;;;;;4939727;28;45425;-87
2022/02/09 18:10:19;;;;;;;;;18.67;15.67;;;;;;;;4948737;28;46405;-87
2022/02/09 18:15:41;;;;;;;;;17.00;14.67;;;;;;;;4944893;28;45409;-87
2022/02/09 18:32:38;;;;;;;;;32.25;31.50;;;;;;;;4969775;28;45473;-87
2022/02/09 19:04:00;;;;;;;;;48.75;41.75;;;;;;;;4969733;28;45445;-92
2022/02/09 19:06:37;;;;;;;;;46.75;41.00;;;;;;;;4949196;28;52709;-91
2022/02/09 19:16:54;;;;;;;;;45.75;36.75;;;;;;;;4978005;28;45606;-92
2022/02/09 19:30:13;;;;;;;;;37.50;32.50;;;;;;;;4971445;28;45554;-90
2022/02/09 19:48:21;;;;;;;;;43.25;36.50;;;;;;;;4980532;28;45379;-89
2022/02/09 19:55:51;;;;;;;;;50.00;38.00;;;;;;;;4970768;28;45483;-87
2022/02/09 19:58:20;;;;;;;;;43.25;36.75;;;;;;;;4970608;28;45467;-87
2022/02/09 20:00:45;;;;;;;;;42.75;37.00;;;;;;;;4976849;28;45491;-86
2022/02/09 20:03:10;;;;;;;;;44.50;36.25;;;;;;;;4955552;28;45371;-87
2022/02/09 20:05:35;;;;;;;;;47.75;37.25;;;;;;;;4971052;28;45603;-86
2022/02/09 20:08:03;;;;;;;;;40.25;35.00;;;;;;;;4956164;28;46197;-91
2022/02/09 20:10:29;;;;;;;;;45.75;39.00;;;;;;;;4959017;28;45578;-89
2022/02/09 20:12:54;;;;;;;;;46.25;39.75;;;;;;;;4944867;28;45548;-89
2022/02/09 20:15:19;;;;;;;;;53.00;39.75;;;;;;;;4966886;28;50110;-88
2022/02/09 20:17:45;;;;;;;;;40.75;35.75;;;;;;;;4951875;28;45433;-90
2022/02/09 20:20:15;;;;;;;;;44.75;39.25;;;;;;;;4967402;28;45616;-91
2022/02/09 20:22:42;;;;;;;;;44.25;38.00;;;;;;;;4957084;28;45728;-88
2022/02/09 20:25:09;;;;;;;;;46.50;40.25;;;;;;;;4955371;28;48258;-89
2022/02/09 20:27:36;;;;;;;;;46.75;38.75;;;;;;;;4937704;28;45517;-88
2022/02/09 20:30:06;;;;;;;;;48.50;40.00;;;;;;;;4967341;28;45652;-89
2022/02/09 20:32:36;;;;;;;;;49.50;37.75;;;;;;;;4979060;28;45486;-89
2022/02/09 20:35:06;;;;;;;;;39.50;34.00;;;;;;;;4962638;28;48293;-89
2022/02/09 20:37:31;;;;;;;;;42.50;36.25;;;;;;;;4958647;28;45496;-87
2022/02/09 20:42:25;;;;;;;;;44.00;37.00;;;;;;;;4973745;28;45580;-88
2022/02/09 20:45:19;;;;;;;;;40.50;37.00;;;;;;;;4962503;28;47033;-95
2022/02/09 20:47:46;;;;;;;;;45.50;38.50;;;;;;;;4951099;28;45713;-95
2022/02/09 20:50:11;;;;;;;;;49.75;39.25;;;;;;;;4962261;28;45370;-95
2022/02/09 20:52:38;;;;;;;;;48.25;38.00;;;;;;;;4960993;28;45520;-96
2022/02/09 20:55:04;;;;;;;;;48.75;41.00;;;;;;;;4985233;28;47114;-95
2022/02/09 20:57:30;;;;;;;;;48.00;40.25;;;;;;;;4997198;28;44842;-96
2022/02/09 21:00:04;;;;;;;;;47.00;38.50;;;;;;;;4997859;28;45564;-95
2022/02/09 21:05:09;;;;;;;;;47.50;39.75;;;;;;;;4964418;28;46227;-95
2022/02/09 21:07:46;;;;;;;;;45.75;40.25;;;;;;;;4973823;28;45469;-95
2022/02/09 21:13:06;;;;;;;;;54.50;43.00;;;;;;;;4876736;29;45563;-95
2022/02/09 21:16:39;;;;;;;;;43.50;39.00;;;;;;;;4876248;29;48303;-95
2022/02/09 21:19:01;;;;;;;;;54.00;41.50;;;;;;;;4878545;29;45386;-94
2022/02/09 21:24:26;;;;;;;;;50.75;41.50;;;;;;;;4871036;29;45456;-94
2022/02/09 21:58:23;;;;;;;;;56.25;43.00;;;;;;;;4976212;28;46046;-95
2022/02/09 22:06:34;;;;;;;;;48.25;39.50;;;;;;;;4978479;28;45385;-95
2022/02/09 22:27:38;;;;;;;;;47.25;41.75;;;;;;;;4978516;28;45346;-94
2022/02/09 22:30:46;;;;;;;;;51.25;39.50;;;;;;;;4961316;28;47075;-95
2022/02/09 22:56:47;;;;;;;;;53.25;43.75;;;;;;;;4972127;28;45334;-95
2022/02/09 22:59:22;;;;;;;;;53.75;41.50;;;;;;;;4960721;28;45536;-96
2022/02/09 23:01:53;;;;;;;;;55.00;42.00;;;;;;;;4962376;28;48033;-95
2022/02/09 23:05:06;;;;;;;;;53.00;41.00;;;;;;;;4961066;28;45318;-96
2022/02/09 23:07:24;;;;;;;;;48.50;39.75;;;;;;;;4957650;28;45516;-95
2022/02/09 23:10:01;;;;;;;;;55.00;41.50;;;;;;;;4974643;28;45545;-96
2022/02/09 23:15:29;;;;;;;;;47.25;38.00;;;;;;;;4972385;28;45569;-96
